createdAt,value
2022-10-06T00:02:19.306Z,50.14
2022-10-06T00:05:22.705Z,51.99
2022-10-06T00:08:26.230Z,50.07
2022-10-06T00:11:29.665Z,49.64
2022-10-06T00:14:34.342Z,49.97
2022-10-06T00:17:37.532Z,50.49
2022-10-06T00:20:43.460Z,49.79
2022-10-06T00:23:46.949Z,50.00
2022-10-06T00:26:50.170Z,49.56
2022-10-06T00:29:54.744Z,49.70
2022-10-06T00:33:00.834Z,50.48
2022-10-06T00:36:04.930Z,49.89
2022-10-06T00:39:08.228Z,50.12
2022-10-06T00:42:28.013Z,50.63
2022-10-06T00:45:37.709Z,50.66
2022-10-06T00:48:41.173Z,51.16
2022-10-06T00:51:48.860Z,51.87
2022-10-06T00:54:52.656Z,52.17
2022-10-06T00:57:56.506Z,51.59
2022-10-06T01:01:01.223Z,51.43
2022-10-06T01:04:10.740Z,51.45
2022-10-06T01:07:13.946Z,51.33
2022-10-06T01:10:17.250Z,51.40
2022-10-06T01:13:21.132Z,51.51
2022-10-06T01:16:27.427Z,51.85
2022-10-06T01:19:43.849Z,51.38
2022-10-06T01:22:51.678Z,51.18
2022-10-06T01:25:55.035Z,51.31
2022-10-06T01:28:58.852Z,51.23
2022-10-06T01:32:02.693Z,51.58
2022-10-06T01:35:07.754Z,51.94
2022-10-06T01:38:12.522Z,51.90
2022-10-06T01:41:16.465Z,52.28
2022-10-06T01:44:19.999Z,51.80
2022-10-06T01:47:23.169Z,52.01
2022-10-06T01:50:26.451Z,51.88
2022-10-06T01:53:31.153Z,51.76
2022-10-06T01:56:35.022Z,52.02
2022-10-06T01:59:38.764Z,52.45
2022-10-06T02:02:42.016Z,52.33
2022-10-06T02:05:45.286Z,52.40
2022-10-06T02:08:50.930Z,52.39
2022-10-06T02:11:54.467Z,53.51
2022-10-06T02:14:57.690Z,52.82
2022-10-06T02:18:00.934Z,53.01
2022-10-06T02:21:05.533Z,53.44
2022-10-06T02:24:10.235Z,53.30
2022-10-06T02:27:13.455Z,53.32
2022-10-06T02:30:17.370Z,53.44
2022-10-06T02:33:22.678Z,52.84
2022-10-06T02:36:26.153Z,53.51
2022-10-06T02:39:30.849Z,52.77
2022-10-06T02:42:36.661Z,52.80
2022-10-06T02:45:40.288Z,52.95
2022-10-06T02:48:44.372Z,53.34
2022-10-06T02:51:47.783Z,54.12
2022-10-06T02:54:52.481Z,53.43
2022-10-06T02:57:56.299Z,54.46
2022-10-06T03:01:03.493Z,54.33
2022-10-06T03:04:06.802Z,55.53
2022-10-06T03:07:11.046Z,54.90
2022-10-06T03:10:15.828Z,55.38
2022-10-06T03:13:19.003Z,54.84
2022-10-06T03:16:24.411Z,55.42
2022-10-06T03:19:28.187Z,55.16
2022-10-06T03:22:31.996Z,55.55
2022-10-06T03:25:37.185Z,55.78
2022-10-06T03:28:40.746Z,54.73
2022-10-06T03:31:44.623Z,55.54
2022-10-06T03:34:48.990Z,54.71
2022-10-06T03:37:52.850Z,54.50
2022-10-06T03:41:05.643Z,54.60
2022-10-06T03:44:09.078Z,55.84
2022-10-06T03:47:17.442Z,54.80
2022-10-06T03:50:22.211Z,54.39
2022-10-06T03:53:28.162Z,54.69
2022-10-06T03:56:36.124Z,54.49
2022-10-06T03:59:40.625Z,54.71
2022-10-06T04:02:43.902Z,55.04
2022-10-06T04:05:54.681Z,55.04
2022-10-06T04:08:59.615Z,55.37
2022-10-06T04:12:04.757Z,55.20
2022-10-06T04:15:11.619Z,56.76
2022-10-06T04:18:16.744Z,57.27
2022-10-06T04:21:20.744Z,56.87
2022-10-06T04:24:24.050Z,56.03
2022-10-06T04:27:29.645Z,56.62
2022-10-06T04:30:38.569Z,55.92
2022-10-06T04:33:42.800Z,55.95
2022-10-06T04:36:47.551Z,55.00
2022-10-06T04:39:53.021Z,55.55
2022-10-06T04:42:57.659Z,55.52
2022-10-06T04:46:13.117Z,55.70
2022-10-06T04:49:25.748Z,55.11
2022-10-06T04:52:30.444Z,55.41
2022-10-06T04:55:34.042Z,55.44
2022-10-06T04:58:40.655Z,55.49
2022-10-06T05:01:44.378Z,55.05
2022-10-06T05:04:49.908Z,55.16
2022-10-06T05:07:53.998Z,55.44
2022-10-06T05:11:00.814Z,55.18
2022-10-06T05:14:06.264Z,55.63
2022-10-06T05:17:12.461Z,55.80
2022-10-06T05:20:16.200Z,56.28
2022-10-06T05:23:20.553Z,55.84
2022-10-06T05:26:26.666Z,56.77
2022-10-06T05:29:32.409Z,55.97
2022-10-06T05:32:36.297Z,56.24
2022-10-06T05:35:40.864Z,56.39
2022-10-06T05:38:44.822Z,55.27
2022-10-06T05:41:48.442Z,54.61
2022-10-06T05:44:53.096Z,54.51
2022-10-06T05:47:56.431Z,53.81
2022-10-06T05:51:01.056Z,53.29
2022-10-06T05:54:05.004Z,51.94
2022-10-06T05:57:09.246Z,51.50
2022-10-06T06:00:14.421Z,50.38
2022-10-06T06:03:20.814Z,49.80
2022-10-06T06:06:26.208Z,49.26
2022-10-06T06:09:31.475Z,49.12
2022-10-06T06:12:39.680Z,50.13
2022-10-06T06:16:06.184Z,49.42
2022-10-06T06:19:12.519Z,48.33
2022-10-06T06:22:17.189Z,47.80
2022-10-06T06:25:22.669Z,47.37
2022-10-06T06:28:26.149Z,47.08
2022-10-06T06:31:33.233Z,47.19
2022-10-06T06:34:36.698Z,46.48
2022-10-06T06:37:40.301Z,46.33
2022-10-06T06:40:43.536Z,45.23
2022-10-06T06:43:50.107Z,44.78
2022-10-06T06:47:24.393Z,44.70
2022-10-06T06:50:29.349Z,44.33
2022-10-06T06:53:33.163Z,43.66
2022-10-06T06:56:39.040Z,44.87
2022-10-06T06:59:45.676Z,43.65
2022-10-06T07:02:56.282Z,43.16
2022-10-06T07:06:09.520Z,42.58
2022-10-06T07:09:14.345Z,42.61
2022-10-06T07:12:18.767Z,42.26
2022-10-06T07:15:45.264Z,41.80
2022-10-06T07:19:07.375Z,40.23
2022-10-06T07:22:34.587Z,41.16
2022-10-06T07:25:40.261Z,40.26
2022-10-06T07:28:46.251Z,40.14
2022-10-06T07:31:52.176Z,39.58
2022-10-06T07:34:58.224Z,39.22
2022-10-06T07:38:08.054Z,38.89
2022-10-06T07:41:20.040Z,38.84
2022-10-06T07:44:30.789Z,37.52
2022-10-06T07:47:34.470Z,37.35
2022-10-06T07:50:42.148Z,37.68
2022-10-06T07:53:50.220Z,37.41
2022-10-06T07:56:59.863Z,37.05
2022-10-06T08:00:05.609Z,36.55
2022-10-06T08:03:18.920Z,36.45
2022-10-06T08:06:23.870Z,35.83
2022-10-06T08:09:27.146Z,36.07
2022-10-06T08:12:37.948Z,35.52
2022-10-06T08:15:41.353Z,35.48
2022-10-06T08:18:46.873Z,34.82
2022-10-06T08:21:52.280Z,34.92
2022-10-06T08:25:05.694Z,35.42
2022-10-06T08:28:09.771Z,35.10
2022-10-06T08:31:13.413Z,35.05
2022-10-06T08:34:16.719Z,33.92
2022-10-06T08:37:23.764Z,33.97
2022-10-06T08:40:28.316Z,35.11
2022-10-06T08:43:32.813Z,34.43
2022-10-06T08:46:41.637Z,34.02
2022-10-06T08:49:46.447Z,33.88
2022-10-06T08:53:05.088Z,34.08
2022-10-06T08:56:18.342Z,34.11
2022-10-06T08:59:22.149Z,33.79
2022-10-06T09:02:31.536Z,34.62
2022-10-06T09:05:35.168Z,33.55
2022-10-06T09:08:49.501Z,33.71
2022-10-06T09:12:01.978Z,32.48
2022-10-06T09:15:20.794Z,32.93
2022-10-06T09:18:49.338Z,32.07
2022-10-06T09:21:55.622Z,32.25
2022-10-06T09:25:10.180Z,32.36
2022-10-06T09:28:16.789Z,32.29
2022-10-06T09:31:23.628Z,31.68
2022-10-06T09:34:37.651Z,32.83
2022-10-06T09:37:54.667Z,33.12
2022-10-06T09:40:59.434Z,33.59
2022-10-06T09:44:06.076Z,33.17
2022-10-06T09:47:31.943Z,33.72
2022-10-06T09:50:35.380Z,32.51
2022-10-06T09:53:39.661Z,32.73
2022-10-06T09:56:47.287Z,31.95
2022-10-06T09:59:50.665Z,31.88
2022-10-06T10:02:59.603Z,32.07
2022-10-06T10:06:03.207Z,31.91
2022-10-06T10:09:22.913Z,32.04
2022-10-06T10:12:29.096Z,31.43
2022-10-06T10:15:35.283Z,30.74
2022-10-06T10:18:39.148Z,31.09
2022-10-06T10:21:46.109Z,31.14
2022-10-06T10:25:00.293Z,30.74
2022-10-06T10:28:17.230Z,30.51
2022-10-06T10:31:31.371Z,30.82
2022-10-06T10:35:00.169Z,31.59
2022-10-06T10:38:13.769Z,31.99
2022-10-06T10:41:22.272Z,31.04
2022-10-06T10:44:32.900Z,30.87
2022-10-06T10:47:39.315Z,30.90
2022-10-06T10:50:51.202Z,30.90
2022-10-06T10:53:59.833Z,31.22
2022-10-06T10:57:03.654Z,31.02
2022-10-06T11:00:13.622Z,30.36
2022-10-06T11:03:17.059Z,30.59
2022-10-06T11:06:38.789Z,29.75
2022-10-06T11:09:50.479Z,29.98
2022-10-06T11:13:22.094Z,30.07
2022-10-06T11:16:41.040Z,30.24
2022-10-06T11:19:54.706Z,29.73
2022-10-06T11:23:05.226Z,29.27
2022-10-06T11:26:25.079Z,29.65
2022-10-06T11:29:40.611Z,29.66
2022-10-06T11:33:02.059Z,29.96
2022-10-06T11:36:11.464Z,30.12
2022-10-06T11:39:21.807Z,29.84
2022-10-06T11:42:32.868Z,28.94
2022-10-06T11:45:45.770Z,29.70
2022-10-06T11:48:50.455Z,29.58
2022-10-06T11:51:58.289Z,29.25
2022-10-06T11:55:10.697Z,28.97
2022-10-06T11:58:41.261Z,29.26
2022-10-06T12:01:54.167Z,28.52
2022-10-06T12:05:55.869Z,28.32
2022-10-06T12:08:59.004Z,28.55
2022-10-06T12:12:08.063Z,28.50
2022-10-06T12:17:08.342Z,28.60
2022-10-06T12:19:00.154Z,28.72
2022-10-06T12:22:16.931Z,28.99
2022-10-06T12:25:28.067Z,29.07
2022-10-06T12:28:37.679Z,28.54
2022-10-06T12:31:51.473Z,28.37
2022-10-06T12:35:04.158Z,28.00
2022-10-06T12:38:44.996Z,27.48
2022-10-06T12:42:19.047Z,27.03
2022-10-06T12:45:23.975Z,27.30
2022-10-06T12:48:35.230Z,26.77
2022-10-06T12:51:41.476Z,26.53
2022-10-06T12:54:58.405Z,26.00
2022-10-06T12:58:01.856Z,25.70
2022-10-06T13:01:09.900Z,26.00
2022-10-06T13:04:31.305Z,26.26
2022-10-06T13:07:35.535Z,25.69
2022-10-06T13:10:40.255Z,25.95
2022-10-06T13:13:53.989Z,25.07
2022-10-06T13:17:02.469Z,23.28
2022-10-06T13:20:08.280Z,23.66
2022-10-06T13:23:25.570Z,23.59
2022-10-06T13:26:32.837Z,23.86
2022-10-06T13:29:36.124Z,23.60
2022-10-06T13:32:39.742Z,23.84
2022-10-06T13:35:43.276Z,23.03
2022-10-06T13:38:46.747Z,23.85
2022-10-06T13:41:53.753Z,23.29
2022-10-06T13:45:01.039Z,23.34
2022-10-06T13:48:07.438Z,24.08
2022-10-06T13:51:17.922Z,24.18
2022-10-06T13:54:25.656Z,24.39
2022-10-06T13:57:41.475Z,24.31
2022-10-06T14:00:50.131Z,24.04
2022-10-06T14:04:13.203Z,24.32
2022-10-06T14:07:16.447Z,23.77
2022-10-06T14:10:22.401Z,24.11
2022-10-06T14:13:29.358Z,24.38
2022-10-06T14:16:32.976Z,24.77
2022-10-06T14:19:38.982Z,23.61
2022-10-06T14:22:42.477Z,23.78
2022-10-06T14:25:45.726Z,23.47
2022-10-06T14:28:53.074Z,23.18
2022-10-06T14:31:56.235Z,23.43
2022-10-06T14:34:59.472Z,24.11
2022-10-06T14:38:02.800Z,23.88
2022-10-06T14:41:06.479Z,24.65
2022-10-06T14:44:12.463Z,23.39
2022-10-06T14:47:15.732Z,23.87
2022-10-06T14:50:18.962Z,23.97
2022-10-06T14:53:22.183Z,23.94
2022-10-06T14:56:26.776Z,24.60
2022-10-06T14:59:31.885Z,23.94
2022-10-06T15:02:35.796Z,24.64
2022-10-06T15:05:59.508Z,25.58
2022-10-06T15:09:01.749Z,24.68
2022-10-06T15:12:05.395Z,25.97
2022-10-06T15:15:10.981Z,26.34
2022-10-06T15:18:15.464Z,26.46
2022-10-06T15:21:19.068Z,26.45
2022-10-06T15:24:22.269Z,25.92
2022-10-06T15:27:54.515Z,25.73
2022-10-06T15:30:59.241Z,26.45
2022-10-06T15:34:03.808Z,26.51
2022-10-06T15:37:07.768Z,25.94
2022-10-06T15:40:11.495Z,26.59
2022-10-06T15:43:14.691Z,26.81
2022-10-06T15:46:19.369Z,27.51
2022-10-06T15:49:24.040Z,28.19
2022-10-06T15:52:34.000Z,28.67
2022-10-06T15:55:38.827Z,29.74
2022-10-06T15:58:42.075Z,31.66
2022-10-06T16:01:48.058Z,32.91
2022-10-06T16:05:17.197Z,33.74
2022-10-06T16:08:20.551Z,34.55
2022-10-06T16:11:23.749Z,35.24
2022-10-06T16:14:27.437Z,34.66
2022-10-06T16:17:32.024Z,33.30
2022-10-06T16:20:35.265Z,33.90
2022-10-06T16:23:38.471Z,34.06
2022-10-06T16:26:41.788Z,32.38
2022-10-06T16:29:44.980Z,32.13
2022-10-06T16:32:49.587Z,32.85
2022-10-06T16:35:56.798Z,32.78
2022-10-06T16:38:59.989Z,33.43
2022-10-06T16:42:03.837Z,33.49
2022-10-06T16:45:08.197Z,32.54
2022-10-06T16:48:12.840Z,32.35
2022-10-06T16:51:17.951Z,32.85
2022-10-06T16:54:21.158Z,33.03
2022-10-06T16:57:24.959Z,33.60
2022-10-06T17:00:28.188Z,33.83
2022-10-06T17:03:32.936Z,33.45
2022-10-06T17:06:39.218Z,33.58
2022-10-06T17:10:01.497Z,33.89
2022-10-06T17:13:05.636Z,34.28
2022-10-06T17:16:10.775Z,34.56
2022-10-06T17:19:16.979Z,34.72
2022-10-06T17:22:20.264Z,35.12
2022-10-06T17:25:23.405Z,34.79
2022-10-06T17:28:26.881Z,34.90
2022-10-06T17:31:32.839Z,35.00
2022-10-06T17:34:38.009Z,35.44
2022-10-06T17:37:41.384Z,35.59
2022-10-06T17:40:44.964Z,35.96
2022-10-06T17:43:49.709Z,36.45
2022-10-06T17:46:55.461Z,36.62
2022-10-06T17:50:00.624Z,36.80
2022-10-06T17:53:03.823Z,37.21
2022-10-06T17:56:07.893Z,36.93
2022-10-06T17:59:14.547Z,37.09
2022-10-06T18:02:17.717Z,37.29
2022-10-06T18:05:22.391Z,38.06
2022-10-06T18:08:26.343Z,37.44
2022-10-06T18:11:41.919Z,37.83
2022-10-06T18:14:45.516Z,38.20
2022-10-06T18:17:50.697Z,38.29
2022-10-06T18:21:02.976Z,38.91
2022-10-06T18:24:08.133Z,39.40
2022-10-06T18:27:13.770Z,38.45
2022-10-06T18:30:17.043Z,38.20
2022-10-06T18:36:09.971Z,38.15
2022-10-06T18:36:45.157Z,38.65
2022-10-06T18:39:48.454Z,38.97
2022-10-06T18:42:51.635Z,38.48
2022-10-06T18:46:12.609Z,38.50
2022-10-06T18:49:18.282Z,38.67
2022-10-06T18:52:22.863Z,38.53
2022-10-06T18:55:26.527Z,39.07
2022-10-06T18:58:29.716Z,39.45
2022-10-06T19:01:33.566Z,39.16
2022-10-06T19:04:36.977Z,39.52
2022-10-06T19:07:41.851Z,40.24
2022-10-06T19:11:05.215Z,40.30
2022-10-06T19:14:08.452Z,39.56
2022-10-06T19:17:14.039Z,39.38
2022-10-06T19:20:18.449Z,39.24
2022-10-06T19:23:23.320Z,39.05
2022-10-06T19:26:27.126Z,39.91
2022-10-06T19:29:36.689Z,40.06
2022-10-06T19:32:39.887Z,40.92
2022-10-06T19:35:52.191Z,41.24
2022-10-06T19:38:57.632Z,41.40
2022-10-06T19:42:18.015Z,41.49
2022-10-06T19:45:21.603Z,41.07
2022-10-06T19:48:24.828Z,41.67
2022-10-06T19:51:28.021Z,42.26
2022-10-06T19:54:32.781Z,43.23
2022-10-06T19:57:36.015Z,42.93
2022-10-06T20:00:40.571Z,43.38
2022-10-06T20:03:44.196Z,42.93
2022-10-06T20:06:48.645Z,42.32
2022-10-06T20:09:53.276Z,42.16
2022-10-06T20:12:56.657Z,42.53
2022-10-06T20:16:02.521Z,43.01
2022-10-06T20:19:06.603Z,42.16
2022-10-06T20:22:10.190Z,41.63
2022-10-06T20:25:14.747Z,43.01
2022-10-06T20:28:17.991Z,42.04
2022-10-06T20:31:24.233Z,41.62
2022-10-06T20:34:32.044Z,42.94
2022-10-06T20:37:38.400Z,42.27
2022-10-06T20:40:49.002Z,41.83
2022-10-06T20:43:54.078Z,41.24
2022-10-06T20:46:57.318Z,41.99
2022-10-06T20:50:00.559Z,42.29
2022-10-06T20:53:03.728Z,41.17
2022-10-06T20:56:09.063Z,41.85
2022-10-06T20:59:13.338Z,44.84
2022-10-06T21:02:16.628Z,45.63
2022-10-06T21:05:20.281Z,44.90
2022-10-06T21:08:23.613Z,44.57
2022-10-06T21:11:28.329Z,44.63
2022-10-06T21:14:31.516Z,44.60
2022-10-06T21:17:34.679Z,43.85
2022-10-06T21:20:40.762Z,44.37
2022-10-06T21:23:50.165Z,44.52
2022-10-06T21:26:56.257Z,44.71
2022-10-06T21:29:59.405Z,44.52
2022-10-06T21:33:02.659Z,44.99
2022-10-06T21:36:06.749Z,45.44
2022-10-06T21:39:10.474Z,45.33
2022-10-06T21:42:15.099Z,45.11
2022-10-06T21:45:20.970Z,44.44
2022-10-06T21:48:26.368Z,46.00
2022-10-06T21:51:31.241Z,46.67
2022-10-06T21:54:34.672Z,45.93
2022-10-06T21:57:39.318Z,45.55
2022-10-06T22:00:42.499Z,45.26
2022-10-06T22:03:45.703Z,45.96
2022-10-06T22:06:50.797Z,46.07
2022-10-06T22:09:54.043Z,46.96
2022-10-06T22:12:58.686Z,47.14
2022-10-06T22:16:05.425Z,47.08
2022-10-06T22:19:10.451Z,47.13
2022-10-06T22:22:13.709Z,46.41
2022-10-06T22:25:16.928Z,45.62
2022-10-06T22:28:21.964Z,45.19
2022-10-06T22:31:26.470Z,45.86
2022-10-06T22:34:29.961Z,45.18
2022-10-06T22:37:33.182Z,45.71
2022-10-06T22:40:36.337Z,45.70
2022-10-06T22:43:41.034Z,45.76
2022-10-06T22:46:44.689Z,45.14
2022-10-06T22:49:47.949Z,46.10
2022-10-06T22:52:51.120Z,46.03
2022-10-06T22:55:55.750Z,46.42
2022-10-06T22:59:00.743Z,45.43
2022-10-06T23:02:03.979Z,45.21
2022-10-06T23:05:07.769Z,45.31
2022-10-06T23:08:10.997Z,45.24
2022-10-06T23:11:16.101Z,45.47
2022-10-06T23:14:20.769Z,45.83
2022-10-06T23:17:23.995Z,45.96
2022-10-06T23:20:27.711Z,45.66
2022-10-06T23:23:31.002Z,45.92
2022-10-06T23:26:34.229Z,45.31
2022-10-06T23:29:38.827Z,45.73
2022-10-06T23:32:42.037Z,47.42
2022-10-06T23:35:45.222Z,47.43
2022-10-06T23:38:48.409Z,48.19
2022-10-06T23:41:51.601Z,48.11
2022-10-06T23:44:56.360Z,48.48
2022-10-06T23:48:00.219Z,50.12
2022-10-06T23:51:05.710Z,48.95
2022-10-06T23:54:09.626Z,49.58
2022-10-06T23:57:12.751Z,50.51
